Time;durP1;ratioP1;P1;durP2;ratioP2;P2;SDS_P1;SDS_P2;PMS_P1;PMS_P2;Temp;Humidity;BMP_temperature;BMP_pressure;BME280_temperature;BME280_humidity;BME280_pressure;Samples;Min_cycle;Max_cycle;Signal;HPM_P1;HPM_P2
2021/07/02 00:00:13;;;;;;;1.03;0.80;;;18.50;99.90;;;;;;6361322;27;20466;-62
2021/07/02 00:03:18;;;;;;;1.10;1.00;;;18.50;99.90;;;;;;6361313;27;20479;-62
2021/07/02 00:06:21;;;;;;;1.30;1.00;;;18.50;99.90;;;;;;6346758;27;20493;-62
2021/07/02 00:09:24;;;;;;;1.33;0.90;;;18.60;99.90;;;;;;6351641;28;20467;-62
2021/07/02 00:12:27;;;;;;;1.40;1.00;;;18.60;99.80;;;;;;6347774;27;20232;-62
2021/07/02 00:15:31;;;;;;;1.73;0.90;;;18.60;99.60;;;;;;6351390;28;20486;-62
2021/07/02 00:18:35;;;;;;;1.50;1.00;;;18.60;99.40;;;;;;6350394;28;20796;-62
2021/07/02 00:21:38;;;;;;;1.20;1.10;;;18.60;99.20;;;;;;6368045;27;20213;-62
2021/07/02 00:24:42;;;;;;;1.13;1.03;;;18.50;99.20;;;;;;6359790;27;20471;-63
2021/07/02 00:27:45;;;;;;;1.20;1.10;;;18.40;99.30;;;;;;6351101;28;20477;-64
2021/07/02 00:30:48;;;;;;;1.00;1.00;;;18.40;99.70;;;;;;6351152;28;20463;-64
2021/07/02 00:33:53;;;;;;;1.30;1.20;;;18.40;99.30;;;;;;6348174;28;20466;-64
2021/07/02 00:36:56;;;;;;;1.23;1.17;;;18.30;99.30;;;;;;6344806;28;20462;-62
2021/07/02 00:39:59;;;;;;;1.03;0.70;;;18.40;99.30;;;;;;6330786;27;20479;-63
2021/07/02 00:43:03;;;;;;;2.90;0.80;;;18.30;98.80;;;;;;6326051;28;20475;-62
2021/07/02 00:46:06;;;;;;;0.60;0.60;;;18.30;98.60;;;;;;6325467;28;20469;-63
2021/07/02 00:49:10;;;;;;;1.47;0.93;;;18.30;98.50;;;;;;6326075;28;20480;-62
2021/07/02 00:52:14;;;;;;;0.90;0.90;;;18.20;98.40;;;;;;6347332;28;20555;-64
2021/07/02 00:55:18;;;;;;;2.17;1.20;;;18.20;98.40;;;;;;6329057;27;20476;-63
2021/07/02 00:58:21;;;;;;;1.33;1.03;;;18.10;98.70;;;;;;6325276;28;20471;-63
2021/07/02 01:01:25;;;;;;;1.30;1.20;;;18.00;98.90;;;;;;6335501;28;20463;-62
2021/07/02 01:04:29;;;;;;;2.70;1.57;;;18.00;99.00;;;;;;6350582;27;20818;-63
2021/07/02 01:07:33;;;;;;;2.03;1.10;;;17.90;98.90;;;;;;6374027;27;20462;-63
2021/07/02 01:10:36;;;;;;;1.03;0.93;;;17.80;98.70;;;;;;6350801;27;20455;-63
2021/07/02 01:13:40;;;;;;;0.83;0.80;;;17.80;98.70;;;;;;6349789;28;20486;-63
2021/07/02 01:16:43;;;;;;;1.20;1.07;;;17.80;98.60;;;;;;6375776;27;20914;-63
2021/07/02 01:19:50;;;;;;;1.23;1.13;;;17.80;98.50;;;;;;6375904;27;20443;-63
2021/07/02 01:22:57;;;;;;;1.33;1.17;;;17.70;98.60;;;;;;6376263;27;20419;-63
2021/07/02 01:26:01;;;;;;;2.40;0.70;;;17.70;98.40;;;;;;6375677;27;20792;-65
2021/07/02 01:29:04;;;;;;;0.80;0.80;;;17.80;98.40;;;;;;6376239;27;20942;-67
2021/07/02 01:32:10;;;;;;;6.20;1.90;;;17.80;98.40;;;;;;6375434;27;20478;-67
2021/07/02 01:35:14;;;;;;;3.60;1.60;;;17.80;98.40;;;;;;6376193;27;20466;-67
2021/07/02 01:38:18;;;;;;;4.37;2.40;;;17.80;98.50;;;;;;6375210;27;20470;-66
2021/07/02 01:41:22;;;;;;;2.80;2.00;;;17.80;98.40;;;;;;6376361;27;20478;-67
2021/07/02 01:44:25;;;;;;;1.90;1.73;;;17.80;98.60;;;;;;6375135;27;20820;-67
2021/07/02 01:47:28;;;;;;;2.20;1.43;;;17.80;98.70;;;;;;6375706;27;20473;-66
2021/07/02 01:50:32;;;;;;;2.63;1.43;;;17.80;98.80;;;;;;6375612;27;20470;-65
2021/07/02 01:53:36;;;;;;;2.57;1.57;;;17.80;98.40;;;;;;6375401;27;20470;-65
2021/07/02 01:56:47;;;;;;;1.40;1.30;;;17.80;98.40;;;;;;6375621;27;20467;-65
2021/07/02 01:59:51;;;;;;;1.30;1.10;;;17.80;98.20;;;;;;6375422;27;20470;-68
2021/07/02 02:02:54;;;;;;;1.20;1.03;;;17.80;98.00;;;;;;6375439;27;20481;-67
2021/07/02 02:05:57;;;;;;;1.30;1.10;;;17.70;98.00;;;;;;6375065;27;20994;-67
2021/07/02 02:09:02;;;;;;;8.83;1.93;;;17.80;98.00;;;;;;6375369;27;20470;-67
2021/07/02 02:12:06;;;;;;;3.03;1.33;;;17.80;97.70;;;;;;6375967;27;20474;-64
2021/07/02 02:15:10;;;;;;;1.97;0.87;;;17.70;97.40;;;;;;6375759;27;20478;-67
2021/07/02 02:18:14;;;;;;;1.63;1.00;;;17.80;97.50;;;;;;6375649;27;20484;-65
2021/07/02 02:21:17;;;;;;;1.27;1.17;;;17.80;97.40;;;;;;6375945;27;20470;-65
2021/07/02 02:24:21;;;;;;;2.00;1.27;;;17.80;97.40;;;;;;6375612;27;20480;-67
2021/07/02 02:27:25;;;;;;;1.87;1.37;;;17.80;97.30;;;;;;6376071;27;20467;-67
2021/07/02 02:30:28;;;;;;;1.50;1.40;;;17.70;97.30;;;;;;6375363;27;20462;-67
2021/07/02 02:33:31;;;;;;;1.50;1.40;;;17.80;97.40;;;;;;6376022;27;20467;-68
2021/07/02 02:36:35;;;;;;;1.53;1.33;;;17.70;97.40;;;;;;6375593;27;20481;-67
2021/07/02 02:39:39;;;;;;;1.70;1.33;;;17.80;97.40;;;;;;6375527;27;20474;-66
2021/07/02 02:42:42;;;;;;;3.30;1.57;;;17.70;97.30;;;;;;6375530;27;20463;-67
2021/07/02 02:45:46;;;;;;;2.00;1.80;;;17.60;97.10;;;;;;6375061;27;20813;-67
2021/07/02 02:48:49;;;;;;;1.67;1.57;;;17.60;97.30;;;;;;6375205;27;20470;-67
2021/07/02 02:51:52;;;;;;;1.30;1.20;;;17.50;97.10;;;;;;6375047;27;20809;-67
2021/07/02 02:54:57;;;;;;;1.23;1.13;;;17.60;97.20;;;;;;6374933;27;20481;-67
2021/07/02 02:58:00;;;;;;;1.40;1.20;;;17.60;97.20;;;;;;6374824;27;20462;-67
2021/07/02 03:01:04;;;;;;;1.70;1.40;;;17.70;97.20;;;;;;6374954;27;20467;-67
2021/07/02 03:04:07;;;;;;;2.80;1.50;;;17.70;97.10;;;;;;6374532;27;20477;-67
2021/07/02 03:07:11;;;;;;;1.93;1.40;;;17.60;97.60;;;;;;6375201;27;20470;-67
2021/07/02 03:10:15;;;;;;;1.53;1.43;;;17.60;97.70;;;;;;6374561;27;20504;-67
2021/07/02 03:13:18;;;;;;;1.97;1.60;;;17.60;97.90;;;;;;6374760;27;20481;-67
2021/07/02 03:16:21;;;;;;;1.83;1.40;;;17.60;98.20;;;;;;6374471;27;20478;-67
2021/07/02 03:19:25;;;;;;;3.77;1.60;;;17.60;98.80;;;;;;6369865;27;20458;-68
2021/07/02 03:22:28;;;;;;;2.00;1.50;;;17.60;98.90;;;;;;6379324;27;20462;-68
2021/07/02 03:25:33;;;;;;;5.20;1.70;;;17.70;99.00;;;;;;6379921;27;20474;-67
2021/07/02 03:28:36;;;;;;;1.43;1.33;;;17.80;99.20;;;;;;6380038;27;20994;-68
2021/07/02 03:31:39;;;;;;;2.37;2.10;;;17.80;99.50;;;;;;6380536;27;20466;-68
2021/07/02 03:34:44;;;;;;;2.73;2.20;;;17.80;99.90;;;;;;6380320;27;20482;-67
2021/07/02 03:37:47;;;;;;;2.00;1.70;;;17.70;99.90;;;;;;6380128;27;20457;-68
2021/07/02 03:40:52;;;;;;;3.73;1.93;;;17.70;99.90;;;;;;6379817;27;20439;-68
2021/07/02 03:43:55;;;;;;;3.53;1.93;;;17.70;99.90;;;;;;6379582;27;20461;-67
2021/07/02 03:46:58;;;;;;;2.13;1.60;;;17.80;99.90;;;;;;6379903;27;20453;-68
2021/07/02 03:50:02;;;;;;;1.80;1.70;;;17.90;99.90;;;;;;6379517;27;20441;-68
2021/07/02 03:53:05;;;;;;;1.90;1.60;;;17.80;99.90;;;;;;6379527;27;20489;-67
2021/07/02 03:56:10;;;;;;;2.60;1.83;;;17.70;99.90;;;;;;6379549;27;20489;-67
2021/07/02 03:59:13;;;;;;;3.40;1.70;;;17.70;99.90;;;;;;6379280;27;20458;-67
2021/07/02 04:02:17;;;;;;;3.37;1.70;;;17.70;99.90;;;;;;6379391;27;20472;-67
2021/07/02 04:05:21;;;;;;;3.43;1.83;;;17.80;99.90;;;;;;6379254;27;20969;-67
2021/07/02 04:08:24;;;;;;;2.20;1.90;;;17.90;99.90;;;;;;6378731;27;20805;-67
2021/07/02 04:11:29;;;;;;;2.03;1.57;;;18.10;99.90;;;;;;6378803;27;20462;-66
2021/07/02 04:14:33;;;;;;;1.87;1.73;;;18.10;99.90;;;;;;6378853;27;20462;-67
2021/07/02 04:17:37;;;;;;;1.27;1.10;;;18.10;99.90;;;;;;6378728;27;20473;-67
2021/07/02 04:20:41;;;;;;;3.70;1.53;;;18.10;99.70;;;;;;6379051;27;20520;-67
2021/07/02 04:23:45;;;;;;;2.60;1.80;;;18.20;99.40;;;;;;6373747;27;20466;-67
2021/07/02 04:26:49;;;;;;;2.70;1.33;;;18.20;99.40;;;;;;6378830;27;20466;-67
2021/07/02 04:29:53;;;;;;;2.43;1.93;;;18.30;99.20;;;;;;6378603;27;20474;-64
2021/07/02 04:32:56;;;;;;;3.00;1.90;;;18.30;98.90;;;;;;6378306;27;20470;-64
2021/07/02 04:35:59;;;;;;;3.03;1.70;;;18.30;98.50;;;;;;6378049;27;20470;-64
2021/07/02 04:39:02;;;;;;;4.77;2.10;;;18.40;98.30;;;;;;6378151;27;20806;-62
2021/07/02 04:42:07;;;;;;;1.93;1.73;;;18.40;97.90;;;;;;6378091;27;20466;-64
2021/07/02 04:45:11;;;;;;;2.77;1.30;;;18.50;97.90;;;;;;6377787;27;20471;-67
2021/07/02 04:48:14;;;;;;;1.83;1.53;;;18.70;97.40;;;;;;6378428;27;20470;-67
2021/07/02 04:51:17;;;;;;;3.00;1.77;;;18.80;97.20;;;;;;6378188;27;20458;-68
2021/07/02 04:54:20;;;;;;;1.93;1.50;;;18.70;96.70;;;;;;6378348;27;20471;-69
2021/07/02 04:57:25;;;;;;;45.13;5.93;;;18.80;96.50;;;;;;6378052;27;20463;-66
2021/07/02 05:00:28;;;;;;;1.80;1.57;;;18.90;96.50;;;;;;6377779;27;20967;-63
2021/07/02 05:03:31;;;;;;;1.80;1.33;;;19.00;96.10;;;;;;6377661;27;20221;-67
2021/07/02 05:06:35;;;;;;;4.40;1.93;;;19.00;96.00;;;;;;6362026;27;20240;-63
2021/07/02 05:09:38;;;;;;;3.60;2.13;;;19.10;95.70;;;;;;6351565;28;20225;-68
2021/07/02 05:12:42;;;;;;;5.80;1.70;;;19.10;95.50;;;;;;6351909;28;20467;-64
2021/07/02 05:15:47;;;;;;;1.90;1.40;;;19.20;95.50;;;;;;6368559;27;20229;-67
2021/07/02 05:18:51;;;;;;;63.60;7.40;;;19.20;95.60;;;;;;6359555;27;20289;-67
2021/07/02 05:21:54;;;;;;;3.77;1.90;;;19.20;95.40;;;;;;6351553;28;20240;-67
2021/07/02 05:24:57;;;;;;;2.90;2.07;;;19.30;94.70;;;;;;6352040;28;20670;-65
2021/07/02 05:28:02;;;;;;;3.40;1.87;;;19.40;94.30;;;;;;6351573;28;20510;-66
2021/07/02 05:31:06;;;;;;;30.87;5.77;;;19.40;94.00;;;;;;6351506;28;20570;-65
2021/07/02 05:34:11;;;;;;;6.67;3.33;;;19.50;93.80;;;;;;6351239;28;20240;-65
2021/07/02 05:37:14;;;;;;;5.30;2.57;;;19.60;93.80;;;;;;6351406;28;20662;-65
2021/07/02 05:40:19;;;;;;;10.23;2.60;;;19.60;93.60;;;;;;6351577;28;20705;-65
2021/07/02 05:43:24;;;;;;;5.30;2.10;;;19.70;93.60;;;;;;6350598;28;20221;-65
2021/07/02 05:46:29;;;;;;;11.20;3.40;;;19.80;93.60;;;;;;6350847;28;20229;-66
2021/07/02 05:49:32;;;;;;;8.43;2.30;;;19.80;93.50;;;;;;6350700;28;20308;-65
2021/07/02 05:52:35;;;;;;;5.10;2.67;;;19.80;93.60;;;;;;6350889;28;20697;-69
2021/07/02 05:55:42;;;;;;;4.47;2.50;;;19.80;93.50;;;;;;6349048;28;20214;-67
2021/07/02 05:58:47;;;;;;;5.80;2.20;;;19.70;93.30;;;;;;6347286;27;20559;-66
2021/07/02 06:01:50;;;;;;;3.63;2.47;;;19.60;93.30;;;;;;6350211;27;20197;-65
2021/07/02 06:04:53;;;;;;;9.13;2.70;;;19.50;93.20;;;;;;6350082;27;20258;-65
2021/07/02 06:07:56;;;;;;;26.23;5.30;;;19.50;93.40;;;;;;6349689;27;20201;-65
2021/07/02 06:11:01;;;;;;;26.53;5.37;;;19.50;93.40;;;;;;6347619;27;20209;-65
2021/07/02 06:14:05;;;;;;;18.30;3.70;;;19.60;93.10;;;;;;6349406;28;20233;-65
2021/07/02 06:17:08;;;;;;;4.60;2.90;;;19.50;93.30;;;;;;6349428;28;20236;-65
2021/07/02 06:20:13;;;;;;;7.40;3.03;;;19.50;95.90;;;;;;6353542;27;20700;-63
2021/07/02 06:23:16;;;;;;;4.00;2.73;;;19.40;96.40;;;;;;6370486;27;20221;-64
2021/07/02 06:26:20;;;;;;;8.40;3.43;;;19.50;96.60;;;;;;6347000;28;20570;-64
2021/07/02 06:29:24;;;;;;;4.10;2.83;;;19.60;96.90;;;;;;6349799;27;20220;-64
2021/07/02 06:32:27;;;;;;;3.67;3.33;;;19.70;97.50;;;;;;6369465;27;20237;-65
2021/07/02 06:35:31;;;;;;;4.40;2.70;;;19.60;98.10;;;;;;6349202;28;20240;-64
2021/07/02 06:38:34;;;;;;;4.47;2.70;;;19.60;98.20;;;;;;6355929;27;20244;-65
2021/07/02 06:41:39;;;;;;;8.73;3.60;;;19.60;98.40;;;;;;6366500;27;20371;-63
2021/07/02 06:44:44;;;;;;;6.27;3.37;;;19.70;98.40;;;;;;6349588;28;20686;-62
2021/07/02 06:47:56;;;;;;;4.83;3.20;;;19.60;98.40;;;;;;6349494;28;20690;-65
2021/07/02 06:50:59;;;;;;;5.20;3.43;;;19.60;98.20;;;;;;6349636;28;20265;-64
2021/07/02 06:54:02;;;;;;;6.73;3.30;;;19.50;98.80;;;;;;6360317;27;20225;-65
2021/07/02 06:57:08;;;;;;;5.60;2.90;;;19.50;99.20;;;;;;6363551;27;20240;-65
2021/07/02 07:00:16;;;;;;;9.33;3.53;;;19.50;99.50;;;;;;6349430;28;20322;-64
2021/07/02 07:03:19;;;;;;;4.50;3.27;;;19.50;99.50;;;;;;6349669;28;20233;-66
2021/07/02 07:06:23;;;;;;;4.30;2.70;;;19.50;99.80;;;;;;6349091;28;20229;-65
2021/07/02 07:09:26;;;;;;;7.80;3.77;;;19.60;99.70;;;;;;6363554;27;20221;-65
2021/07/02 07:12:29;;;;;;;8.47;3.10;;;19.70;99.40;;;;;;6360867;27;20233;-65
2021/07/02 07:15:35;;;;;;;6.50;2.30;;;19.70;99.40;;;;;;6348787;28;20566;-65
2021/07/02 07:18:40;;;;;;;5.03;3.50;;;19.80;99.30;;;;;;6349567;28;20233;-63
2021/07/02 07:21:46;;;;;;;9.90;3.53;;;19.90;99.20;;;;;;6349430;28;20237;-63
2021/07/02 07:24:49;;;;;;;5.83;3.30;;;20.10;99.10;;;;;;6366645;27;20677;-62
2021/07/02 07:27:52;;;;;;;33.13;6.47;;;20.20;98.50;;;;;;6356850;27;20570;-62
2021/07/02 07:30:57;;;;;;;5.80;2.97;;;20.40;98.00;;;;;;6349160;28;20256;-63
2021/07/02 07:34:01;;;;;;;7.23;3.10;;;20.40;96.70;;;;;;6338864;28;20239;-66
2021/07/02 07:37:07;;;;;;;4.33;3.53;;;20.50;96.70;;;;;;6349059;28;20233;-66
2021/07/02 07:40:11;;;;;;;13.43;3.50;;;20.50;96.20;;;;;;6369250;27;20247;-63
2021/07/02 07:43:15;;;;;;;6.60;3.67;;;20.50;97.60;;;;;;6353189;27;20221;-63
2021/07/02 07:46:20;;;;;;;6.57;3.60;;;20.50;97.50;;;;;;6348366;28;20222;-65
2021/07/02 07:49:23;;;;;;;4.50;3.40;;;20.40;97.50;;;;;;6348856;28;20225;-63
2021/07/02 07:52:37;;;;;;;10.03;3.80;;;20.40;97.60;;;;;;6348272;28;20520;-62
2021/07/02 07:55:41;;;;;;;6.60;3.50;;;20.40;97.40;;;;;;6373461;27;20232;-63
2021/07/02 07:58:44;;;;;;;6.90;3.97;;;20.50;97.00;;;;;;6348777;27;20564;-65
2021/07/02 08:01:49;;;;;;;6.40;3.40;;;20.50;97.20;;;;;;6348589;27;20229;-65
2021/07/02 08:04:52;;;;;;;5.17;3.30;;;20.60;97.40;;;;;;6373500;27;20274;-66
2021/07/02 08:07:56;;;;;;;9.93;3.90;;;20.40;97.10;;;;;;6350770;28;20533;-62
2021/07/02 08:10:59;;;;;;;6.17;3.80;;;20.40;96.80;;;;;;6353691;28;20209;-64
2021/07/02 08:14:03;;;;;;;8.17;3.70;;;20.50;97.00;;;;;;6353492;28;20241;-66
2021/07/02 08:17:07;;;;;;;7.17;4.20;;;20.60;96.90;;;;;;6355640;27;20233;-67
2021/07/02 08:20:12;;;;;;;6.97;3.53;;;20.70;96.40;;;;;;6375026;27;20235;-65
2021/07/02 08:23:15;;;;;;;5.00;3.27;;;20.70;96.20;;;;;;6353640;28;20225;-65
2021/07/02 08:26:19;;;;;;;5.03;3.03;;;20.80;96.30;;;;;;6353011;28;20230;-65
2021/07/02 08:29:26;;;;;;;7.40;3.63;;;20.90;96.10;;;;;;6353183;27;20225;-62
2021/07/02 08:32:32;;;;;;;7.97;4.20;;;21.00;96.30;;;;;;6359481;27;20433;-65
2021/07/02 08:35:35;;;;;;;5.67;3.87;;;21.00;96.60;;;;;;6371600;27;20234;-66
2021/07/02 08:38:38;;;;;;;10.43;3.83;;;21.00;95.50;;;;;;6352504;28;20244;-71
2021/07/02 08:41:42;;;;;;;8.80;4.47;;;21.10;95.90;;;;;;6352661;28;20233;-68
2021/07/02 08:44:45;;;;;;;8.77;3.90;;;21.20;95.90;;;;;;6348629;27;20309;-68
2021/07/02 08:47:52;;;;;;;4.73;3.07;;;21.50;95.20;;;;;;6360939;27;20702;-69
2021/07/02 08:50:55;;;;;;;6.83;3.77;;;21.90;94.90;;;;;;6376496;27;20678;-69
2021/07/02 08:53:59;;;;;;;4.03;2.97;;;22.10;93.80;;;;;;6366125;27;20225;-69
2021/07/02 08:57:03;;;;;;;3.90;3.13;;;22.30;93.60;;;;;;6351859;28;20233;-66
2021/07/02 09:00:07;;;;;;;5.80;2.97;;;22.50;91.90;;;;;;6352106;28;20225;-67
2021/07/02 09:03:28;;;;;;;4.43;2.67;;;22.70;91.60;;;;;;6363694;27;20229;-62
2021/07/02 09:06:31;;;;;;;5.23;2.83;;;22.80;91.50;;;;;;6377443;27;20233;-66
2021/07/02 09:09:53;;;;;;;3.30;2.73;;;22.50;91.80;;;;;;6362001;27;20244;-67
2021/07/02 09:12:57;;;;;;;3.90;3.13;;;22.80;91.50;;;;;;6351857;28;20222;-67
2021/07/02 09:16:02;;;;;;;6.03;2.67;;;23.20;89.90;;;;;;6351262;28;20283;-67
2021/07/02 09:19:24;;;;;;;5.10;2.20;;;23.50;85.00;;;;;;6351200;28;20222;-68
2021/07/02 09:22:27;;;;;;;4.30;2.90;;;23.60;83.00;;;;;;6348885;28;20230;-64
2021/07/02 09:25:34;;;;;;;3.87;2.30;;;23.50;81.50;;;;;;6328752;27;20237;-68
2021/07/02 09:28:37;;;;;;;6.30;2.50;;;23.60;79.60;;;;;;6326249;28;20309;-66
2021/07/02 09:31:40;;;;;;;4.73;2.90;;;23.60;80.70;;;;;;6337398;28;20222;-69
2021/07/02 09:34:52;;;;;;;5.07;2.73;;;23.90;81.70;;;;;;6350985;28;20229;-66
2021/07/02 09:37:59;;;;;;;5.73;3.27;;;24.30;81.10;;;;;;6375309;27;20217;-65
2021/07/02 09:41:02;;;;;;;7.77;3.57;;;24.70;80.70;;;;;;6346294;27;20186;-63
2021/07/02 09:44:12;;;;;;;6.03;3.03;;;24.80;77.60;;;;;;6351060;28;20244;-65
2021/07/02 09:47:29;;;;;;;4.60;3.60;;;24.90;77.10;;;;;;6327347;28;20234;-68
2021/07/02 09:50:33;;;;;;;4.37;2.90;;;24.90;76.60;;;;;;6325700;28;20248;-64
2021/07/02 09:53:37;;;;;;;4.33;2.97;;;24.70;72.90;;;;;;6333089;28;20558;-64
2021/07/02 09:56:41;;;;;;;4.20;3.40;;;24.50;74.00;;;;;;6351147;28;20229;-69
2021/07/02 10:00:01;;;;;;;5.40;3.17;;;24.90;74.20;;;;;;6350608;28;20701;-70
2021/07/02 10:03:06;;;;;;;4.03;3.47;;;25.30;71.70;;;;;;6348004;28;20684;-67
2021/07/02 10:06:20;;;;;;;3.30;2.40;;;25.90;70.50;;;;;;6348694;27;20232;-65
2021/07/02 10:09:25;;;;;;;6.27;2.63;;;26.20;63.40;;;;;;6347518;27;20228;-64
2021/07/02 10:12:28;;;;;;;3.43;2.80;;;26.30;62.40;;;;;;6348338;28;20231;-66
2021/07/02 10:15:31;;;;;;;4.90;2.23;;;26.40;60.90;;;;;;6347636;28;20221;-69
2021/07/02 10:18:39;;;;;;;1.93;1.50;;;26.60;60.60;;;;;;6348233;28;20681;-68
2021/07/02 10:21:47;;;;;;;1.50;1.30;;;26.30;59.80;;;;;;6347791;28;20233;-65
2021/07/02 10:24:52;;;;;;;1.80;1.70;;;26.00;60.70;;;;;;6348218;28;20233;-67
2021/07/02 10:27:56;;;;;;;1.73;1.50;;;26.10;60.30;;;;;;6348230;28;20233;-65
2021/07/02 10:31:01;;;;;;;1.63;1.53;;;26.10;60.20;;;;;;6347256;28;20266;-65
2021/07/02 10:34:05;;;;;;;1.73;1.57;;;26.20;60.10;;;;;;6347732;28;20237;-68
2021/07/02 10:37:10;;;;;;;1.73;1.53;;;26.40;58.90;;;;;;6347524;28;20225;-65
2021/07/02 10:40:37;;;;;;;3.13;1.40;;;26.50;57.20;;;;;;6347093;27;20228;-67
2021/07/02 10:44:03;;;;;;;1.90;1.80;;;26.50;58.10;;;;;;6347913;28;20240;-68
2021/07/02 10:47:06;;;;;;;3.77;1.93;;;26.60;57.50;;;;;;6372305;27;20282;-66
2021/07/02 10:50:47;;;;;;;1.40;1.30;;;26.50;58.20;;;;;;6372491;27;20224;-65
2021/07/02 10:53:54;;;;;;;1.90;1.60;;;26.30;58.70;;;;;;6371698;27;20239;-64
2021/07/02 10:57:20;;;;;;;1.60;1.30;;;25.80;59.70;;;;;;6373242;27;20224;-67
2021/07/02 11:00:23;;;;;;;2.37;1.50;;;25.50;61.80;;;;;;6372391;27;20256;-67
2021/07/02 11:03:27;;;;;;;1.73;1.50;;;25.00;63.60;;;;;;6372885;27;20229;-64
2021/07/02 11:06:39;;;;;;;3.07;1.60;;;24.80;64.80;;;;;;6371720;27;20243;-67
2021/07/02 11:09:57;;;;;;;1.67;1.33;;;24.70;65.30;;;;;;6372759;27;20225;-64
2021/07/02 11:13:03;;;;;;;3.23;2.20;;;24.90;64.40;;;;;;6372491;27;20236;-68
2021/07/02 11:16:10;;;;;;;2.77;1.67;;;25.00;63.70;;;;;;6372269;27;20274;-70
2021/07/02 11:19:26;;;;;;;4.53;1.83;;;25.40;62.20;;;;;;6372755;27;20677;-69
2021/07/02 11:22:32;;;;;;;2.40;2.20;;;25.80;60.90;;;;;;6372273;27;20243;-70
2021/07/02 11:25:43;;;;;;;3.23;2.03;;;26.00;59.50;;;;;;6372223;27;20225;-69
2021/07/02 11:28:51;;;;;;;6.53;3.00;;;26.00;58.60;;;;;;6372212;27;20220;-69
2021/07/02 11:31:54;;;;;;;2.60;2.40;;;25.70;59.00;;;;;;6372510;27;20646;-72
2021/07/02 11:35:19;;;;;;;2.03;1.90;;;26.20;59.10;;;;;;6372039;27;20289;-66
2021/07/02 11:38:23;;;;;;;2.40;1.90;;;26.40;58.40;;;;;;6371755;27;20228;-65
2021/07/02 11:41:32;;;;;;;3.60;2.37;;;27.00;58.10;;;;;;6373042;27;20232;-69
2021/07/02 11:44:36;;;;;;;2.03;1.93;;;27.50;57.00;;;;;;6377292;27;20681;-65
2021/07/02 11:47:39;;;;;;;2.67;2.43;;;27.80;55.30;;;;;;6377232;27;20669;-68
2021/07/02 11:50:44;;;;;;;3.47;2.10;;;27.90;55.00;;;;;;6376877;27;20232;-68
2021/07/02 11:53:50;;;;;;;5.63;2.60;;;27.60;55.50;;;;;;6376476;27;20221;-67
2021/07/02 11:56:54;;;;;;;2.70;2.30;;;27.60;55.70;;;;;;6377259;27;20611;-70
2021/07/02 12:00:08;;;;;;;2.90;2.17;;;27.40;55.30;;;;;;6377568;27;20247;-66
2021/07/02 12:03:11;;;;;;;3.70;1.97;;;27.30;55.40;;;;;;6377259;27;20608;-65
2021/07/02 12:06:24;;;;;;;3.27;2.50;;;27.10;56.00;;;;;;6377146;27;20244;-68
2021/07/02 12:09:28;;;;;;;2.33;2.10;;;27.30;55.90;;;;;;6376946;27;20240;-66
2021/07/02 12:12:33;;;;;;;3.33;2.03;;;27.70;55.50;;;;;;6376403;27;20745;-65
2021/07/02 12:15:37;;;;;;;2.57;2.20;;;27.90;54.50;;;;;;6376313;27;20251;-68
2021/07/02 12:18:41;;;;;;;2.80;2.60;;;28.30;53.80;;;;;;6376702;27;20247;-65
2021/07/02 12:21:51;;;;;;;3.50;2.63;;;28.30;51.10;;;;;;6376264;27;20231;-68
2021/07/02 12:24:54;;;;;;;2.77;2.53;;;28.40;51.10;;;;;;6376482;27;20236;-65
2021/07/02 12:28:00;;;;;;;2.40;2.20;;;28.20;50.20;;;;;;6376201;27;20228;-68
2021/07/02 12:31:03;;;;;;;3.80;3.00;;;28.00;51.40;;;;;;6376257;27;20228;-70
2021/07/02 12:34:08;;;;;;;2.93;2.60;;;27.70;51.30;;;;;;6375944;27;20254;-64
2021/07/02 12:37:13;;;;;;;6.33;2.70;;;27.40;51.60;;;;;;6376041;27;20224;-64
2021/07/02 12:40:16;;;;;;;2.47;2.27;;;27.30;52.30;;;;;;6375922;27;20688;-70
2021/07/02 12:43:20;;;;;;;2.90;2.63;;;27.30;52.20;;;;;;6376564;27;20715;-69
2021/07/02 12:46:24;;;;;;;3.67;3.37;;;27.40;52.50;;;;;;6365811;27;20240;-66
2021/07/02 12:49:29;;;;;;;3.57;3.10;;;27.40;50.90;;;;;;6370474;27;20810;-68
2021/07/02 12:56:01;;;;;;;3.50;2.90;;;27.80;52.20;;;;;;6350536;27;20229;-64
2021/07/02 12:59:13;;;;;;;4.40;3.53;;;28.20;49.50;;;;;;6350319;27;20224;-68
2021/07/02 13:02:24;;;;;;;3.77;3.47;;;28.30;47.60;;;;;;6350199;27;20700;-65
2021/07/02 13:05:30;;;;;;;2.80;2.60;;;28.20;48.50;;;;;;6354308;27;20236;-69
2021/07/02 13:08:37;;;;;;;5.20;3.20;;;28.00;47.80;;;;;;6375758;27;20313;-67
2021/07/02 13:11:40;;;;;;;7.97;3.20;;;27.70;47.70;;;;;;6375505;27;20235;-67
2021/07/02 13:14:46;;;;;;;4.30;3.90;;;27.50;48.90;;;;;;6374714;27;20703;-68
2021/07/02 13:17:49;;;;;;;4.47;3.20;;;27.30;49.10;;;;;;6375181;27;20254;-64
2021/07/02 13:20:56;;;;;;;6.67;3.63;;;27.10;48.80;;;;;;6375213;27;20288;-65
2021/07/02 13:24:00;;;;;;;3.07;2.80;;;26.90;49.30;;;;;;6374907;27;20232;-68
2021/07/02 13:27:04;;;;;;;4.77;3.70;;;26.60;50.10;;;;;;6374983;27;20220;-65
2021/07/02 13:30:27;;;;;;;4.87;3.83;;;26.40;50.90;;;;;;6374303;27;20244;-63
2021/07/02 13:33:30;;;;;;;14.43;4.80;;;26.00;51.30;;;;;;6374877;27;20240;-66
2021/07/02 13:36:39;;;;;;;3.90;3.30;;;25.70;52.40;;;;;;6374122;27;20658;-65
2021/07/02 13:39:44;;;;;;;4.70;3.50;;;25.50;53.50;;;;;;6374741;27;20240;-67
2021/07/02 13:43:09;;;;;;;3.47;3.17;;;25.40;52.70;;;;;;6373829;27;20213;-66
2021/07/02 13:46:13;;;;;;;3.53;3.20;;;25.20;53.70;;;;;;6366327;27;20225;-65
2021/07/02 13:49:17;;;;;;;4.20;3.10;;;25.20;54.50;;;;;;6372450;27;20232;-70
2021/07/02 13:52:20;;;;;;;3.27;2.97;;;25.10;53.90;;;;;;6365327;27;20224;-67
2021/07/02 13:55:23;;;;;;;3.00;2.70;;;25.10;55.60;;;;;;6373249;27;20256;-69
2021/07/02 13:58:26;;;;;;;3.80;3.50;;;25.10;55.20;;;;;;6374145;27;20224;-68
2021/07/02 14:01:31;;;;;;;5.80;3.50;;;25.00;54.40;;;;;;6373851;27;20318;-67
2021/07/02 14:04:34;;;;;;;4.10;3.70;;;25.00;54.40;;;;;;6373763;27;20243;-69
2021/07/02 14:07:37;;;;;;;4.30;3.10;;;24.90;54.80;;;;;;6373862;27;20217;-70
2021/07/02 14:10:41;;;;;;;4.50;3.43;;;24.70;54.90;;;;;;6374248;27;20743;-63
2021/07/02 14:13:44;;;;;;;3.60;3.23;;;24.60;54.70;;;;;;6373459;27;20244;-63
2021/07/02 14:16:48;;;;;;;4.63;3.20;;;24.70;55.60;;;;;;6373304;27;20730;-68
2021/07/02 14:19:52;;;;;;;4.53;3.17;;;24.50;54.80;;;;;;6348143;28;20232;-63
2021/07/02 14:22:55;;;;;;;3.17;2.87;;;24.50;55.50;;;;;;6349259;27;20204;-68
2021/07/02 14:25:59;;;;;;;4.00;3.50;;;24.40;56.00;;;;;;6372092;27;20217;-69
2021/07/02 14:29:02;;;;;;;5.20;3.07;;;24.50;55.60;;;;;;6349663;27;20198;-66
2021/07/02 14:32:08;;;;;;;4.10;3.23;;;24.40;54.80;;;;;;6358756;27;20202;-70
2021/07/02 14:35:15;;;;;;;4.20;2.87;;;24.40;55.50;;;;;;6322278;28;20238;-63
2021/07/02 14:38:19;;;;;;;3.40;3.10;;;24.40;54.80;;;;;;6322864;28;20249;-70
2021/07/02 14:41:22;;;;;;;3.80;3.40;;;24.30;55.00;;;;;;6326218;28;20245;-70
2021/07/02 14:44:25;;;;;;;3.50;3.20;;;24.30;56.20;;;;;;6352093;27;20670;-72
2021/07/02 14:47:30;;;;;;;3.10;2.90;;;24.10;56.20;;;;;;6367968;27;20213;-72
2021/07/02 14:50:34;;;;;;;7.90;3.40;;;24.10;55.90;;;;;;6349053;28;20230;-63
2021/07/02 14:53:37;;;;;;;3.17;2.90;;;24.30;57.40;;;;;;6348710;28;20244;-65
2021/07/02 14:56:40;;;;;;;3.40;3.00;;;24.40;57.40;;;;;;6349275;28;20226;-63
2021/07/02 14:59:43;;;;;;;3.20;3.00;;;24.60;57.70;;;;;;6356327;27;20302;-65
2021/07/02 15:02:48;;;;;;;3.77;3.47;;;24.80;57.40;;;;;;6366673;27;20229;-63
2021/07/02 15:05:51;;;;;;;5.87;3.67;;;24.90;57.40;;;;;;6348244;28;20232;-65
2021/07/02 15:08:54;;;;;;;3.90;3.20;;;25.00;56.20;;;;;;6354068;27;20270;-65
2021/07/02 15:11:58;;;;;;;4.23;3.73;;;25.10;56.80;;;;;;6348571;27;20233;-66
2021/07/02 15:15:01;;;;;;;12.87;3.80;;;25.10;56.30;;;;;;6343187;28;20236;-65
2021/07/02 15:18:06;;;;;;;6.03;3.43;;;25.00;57.00;;;;;;6339322;28;20246;-72
2021/07/02 15:21:13;;;;;;;5.07;3.60;;;24.80;57.30;;;;;;6323793;28;20234;-71
2021/07/02 15:24:16;;;;;;;9.00;3.67;;;24.80;57.80;;;;;;6324094;28;20731;-70
2021/07/02 15:27:21;;;;;;;3.60;3.30;;;24.70;58.40;;;;;;6351856;27;20228;-69
2021/07/02 15:31:01;;;;;;;4.70;4.30;;;24.80;58.60;;;;;;6361132;27;20232;-70
2021/07/02 15:34:06;;;;;;;3.73;3.43;;;24.90;59.00;;;;;;6348565;28;20234;-72
2021/07/02 15:37:09;;;;;;;13.20;4.87;;;24.90;58.70;;;;;;6348888;28;20637;-71
2021/07/02 15:40:12;;;;;;;4.30;3.90;;;24.90;59.00;;;;;;6347350;28;20229;-69
2021/07/02 15:43:16;;;;;;;3.40;3.10;;;24.90;58.50;;;;;;6367568;27;20254;-69
2021/07/02 15:46:19;;;;;;;4.10;3.73;;;24.90;58.20;;;;;;6341482;27;20230;-69
2021/07/02 15:49:24;;;;;;;11.03;4.50;;;24.80;57.80;;;;;;6345224;28;20308;-70
2021/07/02 15:52:27;;;;;;;3.53;3.23;;;24.90;58.10;;;;;;6346763;28;20240;-70
2021/07/02 15:55:30;;;;;;;4.53;3.80;;;24.90;57.90;;;;;;6347088;28;20225;-69
2021/07/02 15:58:34;;;;;;;4.00;3.60;;;25.00;57.70;;;;;;6348685;28;20225;-70
2021/07/02 16:01:37;;;;;;;3.30;3.10;;;25.10;56.90;;;;;;6348543;27;20233;-69
2021/07/02 16:04:42;;;;;;;4.23;3.67;;;25.20;57.10;;;;;;6348149;28;20236;-69